WetterOnline ( https://www.wetteronline.de )

Wetter aktuell Altenau

Aktuelles Wetter: Brocken (1141m)

6-stündlich | Neueste Meldungen
Ortszeit Temperatur Wetter
Mo, 22.07. 8:00 11.3° C Nebel
Mo, 22.07. 2:00 14.2° C Nebel
So, 21.07. 20:00 16.4° C bewölkt
So, 21.07. 14:00 21.4° C bedeckt
So, 21.07. 8:00 19.3° C fast wolkenlos
So, 21.07. 2:00 17.7° C wolkenlos
Sa, 20.07. 20:00 19.8° C wolkenlos
Sa, 20.07. 14:00 20.6° C wolkig
Ortszeit Temperatur Wetter
Mo, 22.07. 10:30 11.8° C leicht bewölkt
Mo, 22.07. 10:20 11.8° C leicht bewölkt
Mo, 22.07. 10:10 12.1° C fast wolkenlos
Mo, 22.07. 10:00 12.1° C Nebel
Mo, 22.07. 9:50 12.1° C fast wolkenlos
Mo, 22.07. 9:40 11.5° C wolkenlos
Mo, 22.07. 9:30 10.6° C Nebel
Mo, 22.07. 9:00 10.5° C Nebel
Mo, 22.07. 8:30 10.9° C Nebel
Mo, 22.07. 8:00 11.3° C Nebel
Mo, 22.07. 7:30 11.8° C Nebel
Ortszeit Relative Feuchte Sichtweite
Mo, 22.07. 8:00 99% <100 m
Mo, 22.07. 2:00 99% <100 m
So, 21.07. 20:00 79% >70 km
So, 21.07. 14:00 63% 30 km
So, 21.07. 8:00 62% 45 km
So, 21.07. 2:00 67% 50 km
Sa, 20.07. 20:00 57% 45 km
Sa, 20.07. 14:00 56% 65 km
Ortszeit Relative Feuchte Sichtweite
Mo, 22.07. 10:30 86% 28 km
Mo, 22.07. 10:20 86% -
Mo, 22.07. 10:10 84% -
Mo, 22.07. 10:00 87% 45 km
Mo, 22.07. 9:50 87% -
Mo, 22.07. 9:40 87% -
Mo, 22.07. 9:30 91% 26 km
Mo, 22.07. 9:00 98% 100 m
Mo, 22.07. 8:30 99% <100 m
Mo, 22.07. 8:00 99% <100 m
Mo, 22.07. 7:30 99% <100 m
Ortszeit Niederschlagsmenge Niederschlagsart
Mo, 22.07. 8:00 1 l/m2 in 12 Std. -
Mo, 22.07. 2:00 0.1 l/m2 in 6 Std. Regen
So, 21.07. 20:00 1 l/m2 in 12 Std. Regen
So, 21.07. 14:00 0.0 l/m2 in 6 Std. -
So, 21.07. 8:00 0.0 l/m2 in 12 Std. -
So, 21.07. 2:00 0.0 l/m2 in 6 Std. -
Sa, 20.07. 20:00 0.0 l/m2 in 12 Std. -
Sa, 20.07. 14:00 0.0 l/m2 in 6 Std. -
Ortszeit Niederschlagsmenge Niederschlagsart
Mo, 22.07. 10:30 0.0 l/m2 in 30 Min -
Mo, 22.07. 10:20 keine Meldung -
Mo, 22.07. 10:10 keine Meldung -
Mo, 22.07. 10:00 0.0 l/m2 in 1 Std. -
Mo, 22.07. 9:50 keine Meldung -
Mo, 22.07. 9:40 keine Meldung -
Mo, 22.07. 9:30 0.0 l/m2 in 30 Min -
Mo, 22.07. 9:00 0.0 l/m2 in 1 Std. -
Mo, 22.07. 8:30 0.0 l/m2 in 30 Min -
Mo, 22.07. 8:00 0.1 l/m2 in 1 Std. -
Mo, 22.07. 7:30 0.1 l/m2 in 30 Min -
Ortszeit Stärke Spitze Richtung
km/h Bft. km/h Grad Sektor
Mo, 22.07. 8:00 48 6 70 270° W
Mo, 22.07. 2:00 47 6 58 250° W
So, 21.07. 20:00 31 5 76 280° W
So, 21.07. 14:00 11 2 29 50° NO
So, 21.07. 8:00 14 3 25 200° S
So, 21.07. 2:00 20 4 33 180° S
Sa, 20.07. 20:00 15 3 31 130° SO
Sa, 20.07. 14:00 14 3 36 130° SO
Ortszeit Stärke Spitze Richtung
km/h Bft. km/h Grad Sektor
Mo, 22.07. 10:30 50 7 68 270° W
Mo, 22.07. 10:20 50 7 - 270° W
Mo, 22.07. 10:10 47 6 - 270° W
Mo, 22.07. 10:00 44 6 63 270° W
Mo, 22.07. 9:50 44 6 - 270° W
Mo, 22.07. 9:40 50 7 - 270° W
Mo, 22.07. 9:30 50 7 65 270° W
Mo, 22.07. 9:00 48 6 63 270° W
Mo, 22.07. 8:30 48 6 61 270° W
Mo, 22.07. 8:00 48 6 67 270° W
Mo, 22.07. 7:30 43 6 68 270° W
Ortszeit Untergrenze Bedeckung Gattung
total tief tief mittel hoch
Mo, 22.07. 8:00 <30 m 8/8 0/8 - - -
Mo, 22.07. 2:00 <30 m 8/8 0/8 - - -
So, 21.07. 20:00 2700 m 8/8 7/8 - - -
So, 21.07. 14:00 990 m 8/8 8/8 - - -
So, 21.07. 8:00 9000 m 1/8 0/8 - - -
So, 21.07. 2:00 - 0/8 0/8 - - -
Sa, 20.07. 20:00 - 0/8 0/8 - - -
Sa, 20.07. 14:00 990 m 6/8 5/8 - - -
Ortszeit Bedeckungsgrad in Achtel und Wolkenuntergrenze
Mo, 22.07. 10:30 2(120m)
Mo, 22.07. 10:20 2(120m)
Mo, 22.07. 10:10 1
Mo, 22.07. 10:00 1(120m)
Mo, 22.07. 9:50 1(120m)
Mo, 22.07. 9:40 keine Wolken
Mo, 22.07. 9:30 4(<30m)
Mo, 22.07. 9:00 8(<30m)
Mo, 22.07. 8:30 8(<30m) 8(5700m)
Mo, 22.07. 8:00 8(<30m)
Mo, 22.07. 7:30 8(<30m)
Ortszeit Stationsdruck (hPa) Tendenz (hPa in 3 Std.)
Mo, 22.07. 8:00 884 + 1,6
Mo, 22.07. 2:00 883 - 0,4
So, 21.07. 20:00 882 - 0,2
So, 21.07. 14:00 882 - 0,2
So, 21.07. 8:00 882 + 0,2
So, 21.07. 2:00 883 - 0,6
Sa, 20.07. 20:00 884 - 0,8
Sa, 20.07. 14:00 886 - 0,6
Ortszeit Stationsdruck (hPa) Tendenz (hPa in 3 Std.)
Mo, 22.07. 10:30 885 + 1,2
Mo, 22.07. 10:20 885 keine Meldung
Mo, 22.07. 10:10 885 keine Meldung
Mo, 22.07. 10:00 885 + 1,3
Mo, 22.07. 9:50 885 keine Meldung
Mo, 22.07. 9:40 885 keine Meldung
Mo, 22.07. 9:30 885 + 1,4
Mo, 22.07. 9:00 885 + 1,7
Mo, 22.07. 8:30 884 + 1,6
Mo, 22.07. 8:00 884 + 1,6
Mo, 22.07. 7:30 884 + 1,2
Ortszeit Schneehöhe (cm)
Mo, 22.07. 8:00 0
Mo, 22.07. 2:00 0
So, 21.07. 20:00 0
So, 21.07. 14:00 0
So, 21.07. 8:00 0
So, 21.07. 2:00 0
Sa, 20.07. 20:00 0
Sa, 20.07. 14:00 0
Ortszeit Schneehöhe (cm)
Mo, 22.07. 10:30 0
Mo, 22.07. 10:20 0
Mo, 22.07. 10:10 -
Mo, 22.07. 10:00 0
Mo, 22.07. 9:50 0
Mo, 22.07. 9:40 -
Mo, 22.07. 9:30 0
Mo, 22.07. 9:00 0
Mo, 22.07. 8:30 0
Mo, 22.07. 8:00 0
Mo, 22.07. 7:30 0
Link zu dieser Seite / Seite empfehlen

Das Wetter in ...